createdAt,value
2023-12-22T00:02:21.401Z,18.35
2023-12-22T00:04:48.340Z,20.58
2023-12-22T00:07:15.276Z,21.95
2023-12-22T00:09:42.269Z,21.65
2023-12-22T00:12:09.253Z,21.77
2023-12-22T00:14:36.232Z,23.60
2023-12-22T00:17:03.194Z,22.02
2023-12-22T00:19:30.373Z,25.98
2023-12-22T00:21:57.773Z,25.25
2023-12-22T00:24:24.675Z,22.48
2023-12-22T00:26:51.600Z,23.77
2023-12-22T00:29:19.896Z,22.27
2023-12-22T00:31:48.245Z,25.33
2023-12-22T00:34:15.292Z,25.92
2023-12-22T00:36:42.191Z,27.38
2023-12-22T00:39:09.102Z,27.02
2023-12-22T00:41:36.122Z,24.65
2023-12-22T00:44:03.094Z,25.63
2023-12-22T00:46:30.089Z,27.55
2023-12-22T00:48:57.133Z,27.00
2023-12-22T00:51:24.173Z,28.65
2023-12-22T00:53:51.038Z,27.92
2023-12-22T00:56:17.895Z,24.83
2023-12-22T00:58:51.616Z,28.13
2023-12-22T01:01:22.536Z,25.65
2023-12-22T01:03:49.609Z,26.98
2023-12-22T01:06:16.689Z,23.80
2023-12-22T01:08:43.609Z,22.23
2023-12-22T01:11:10.572Z,20.02
2023-12-22T01:13:37.708Z,21.60
2023-12-22T01:16:04.777Z,20.33
2023-12-22T01:18:32.794Z,16.50
2023-12-22T01:20:59.826Z,16.90
2023-12-22T01:23:26.939Z,16.67
2023-12-22T01:25:54.023Z,19.27
2023-12-22T01:28:21.102Z,16.13
2023-12-22T01:30:48.684Z,18.00
2023-12-22T01:33:15.802Z,16.95
2023-12-22T01:35:42.797Z,16.92
2023-12-22T01:38:09.714Z,17.73
2023-12-22T01:40:37.394Z,16.10
2023-12-22T01:43:04.488Z,15.05
2023-12-22T01:45:31.472Z,16.92
2023-12-22T01:47:58.588Z,14.82
2023-12-22T01:50:25.511Z,13.80
2023-12-22T01:52:52.504Z,12.30
2023-12-22T01:55:19.489Z,12.75
2023-12-22T01:57:46.546Z,12.65
2023-12-22T02:00:13.920Z,12.07
2023-12-22T02:02:44.146Z,12.45
2023-12-22T02:05:12.607Z,11.52
2023-12-22T02:07:41.335Z,12.93
2023-12-22T02:10:11.687Z,13.55
2023-12-22T02:12:38.842Z,13.55
2023-12-22T02:15:06.822Z,14.88
2023-12-22T02:17:36.568Z,13.07
2023-12-22T02:20:05.353Z,15.77
2023-12-22T02:22:33.173Z,14.73
2023-12-22T02:25:00.042Z,15.68
2023-12-22T02:27:26.818Z,16.00
2023-12-22T02:30:06.037Z,15.18
2023-12-22T02:32:36.724Z,17.55
2023-12-22T02:35:06.402Z,17.23
2023-12-22T02:37:33.600Z,15.07
2023-12-22T02:40:00.559Z,12.90
2023-12-22T02:42:31.292Z,13.48
2023-12-22T02:44:59.257Z,12.43
2023-12-22T02:47:28.895Z,12.57
2023-12-22T02:49:55.872Z,10.93
2023-12-22T02:52:22.887Z,10.85
2023-12-22T02:54:49.833Z,11.00
2023-12-22T02:57:16.723Z,10.10
2023-12-22T02:59:43.546Z,12.45
2023-12-22T03:02:10.370Z,11.68
2023-12-22T03:04:37.319Z,12.82
2023-12-22T03:07:04.312Z,11.63
2023-12-22T03:09:33.613Z,10.30
2023-12-22T03:12:03.116Z,11.18
2023-12-22T03:14:36.075Z,10.90
2023-12-22T03:17:04.401Z,10.18
2023-12-22T03:19:31.930Z,10.52
2023-12-22T03:21:59.020Z,9.85
2023-12-22T03:24:29.022Z,11.50
2023-12-22T03:26:56.686Z,11.35
2023-12-22T03:29:23.606Z,11.60
2023-12-22T03:31:50.706Z,10.35
2023-12-22T03:34:17.833Z,11.25
2023-12-22T03:36:45.974Z,10.50
2023-12-22T03:39:12.873Z,12.23
2023-12-22T03:41:39.778Z,12.07
2023-12-22T03:44:06.687Z,10.52
2023-12-22T03:46:33.887Z,13.52
2023-12-22T03:49:00.810Z,15.40
2023-12-22T03:51:27.648Z,13.98
2023-12-22T03:53:54.595Z,14.75
2023-12-22T03:56:21.537Z,13.25
2023-12-22T03:58:48.467Z,12.52
2023-12-22T04:01:15.807Z,13.55
2023-12-22T04:03:42.821Z,15.55
2023-12-22T04:06:09.623Z,13.65
2023-12-22T04:08:36.591Z,16.23
2023-12-22T04:11:03.747Z,13.88
2023-12-22T04:13:30.779Z,13.80
2023-12-22T04:15:57.699Z,13.32
2023-12-22T04:18:24.595Z,14.15
2023-12-22T04:20:54.917Z,15.68
2023-12-22T04:23:21.928Z,13.95
2023-12-22T04:25:48.909Z,15.45
2023-12-22T04:28:15.970Z,13.45
2023-12-22T04:30:42.880Z,13.32
2023-12-22T04:33:09.810Z,12.63
2023-12-22T04:35:36.757Z,12.93
2023-12-22T04:38:03.849Z,12.70
2023-12-22T04:40:31.142Z,14.30
2023-12-22T04:42:58.113Z,12.95
2023-12-22T04:45:24.964Z,14.38
2023-12-22T04:47:52.126Z,12.93
2023-12-22T04:50:19.315Z,12.90
2023-12-22T04:52:46.453Z,14.02
2023-12-22T04:55:13.466Z,13.70
2023-12-22T04:57:40.450Z,12.55
2023-12-22T05:00:08.080Z,12.30
2023-12-22T05:02:35.410Z,12.30
2023-12-22T05:05:04.407Z,11.57
2023-12-22T05:07:31.626Z,12.48
2023-12-22T05:09:58.641Z,11.95
2023-12-22T05:12:25.519Z,12.13
2023-12-22T05:14:52.446Z,10.68
2023-12-22T05:17:19.312Z,12.70
2023-12-22T05:19:46.301Z,11.88
2023-12-22T05:22:13.249Z,11.27
2023-12-22T05:24:40.156Z,12.02
2023-12-22T05:27:07.116Z,12.93
2023-12-22T05:29:34.038Z,14.93
2023-12-22T05:32:01.439Z,11.55
2023-12-22T05:34:28.725Z,13.60
2023-12-22T05:36:55.751Z,10.70
2023-12-22T05:39:22.721Z,13.43
2023-12-22T05:41:49.702Z,14.73
2023-12-22T05:44:16.705Z,13.18
2023-12-22T05:46:43.698Z,12.30
2023-12-22T05:49:10.715Z,10.45
2023-12-22T05:51:41.169Z,11.25
2023-12-22T05:54:14.132Z,9.95
2023-12-22T05:56:41.519Z,11.27
2023-12-22T05:59:08.505Z,12.20
2023-12-22T06:01:35.531Z,10.80
2023-12-22T06:04:02.455Z,11.85
2023-12-22T06:06:31.002Z,10.13
2023-12-22T06:08:58.141Z,9.57
2023-12-22T06:11:24.953Z,10.77
2023-12-22T06:13:51.974Z,11.48
2023-12-22T06:16:19.904Z,12.07
2023-12-22T06:18:47.060Z,11.55
2023-12-22T06:21:13.984Z,11.70
2023-12-22T06:23:40.918Z,12.70
2023-12-22T06:26:12.005Z,11.38
2023-12-22T06:28:40.903Z,8.77
2023-12-22T06:31:08.958Z,10.38
2023-12-22T06:33:36.058Z,10.05
2023-12-22T06:36:03.257Z,10.30
2023-12-22T06:38:31.849Z,9.68
2023-12-22T06:40:58.919Z,9.52
2023-12-22T06:43:26.091Z,10.70
2023-12-22T06:45:56.208Z,9.68
2023-12-22T06:48:23.486Z,9.70
2023-12-22T06:50:50.715Z,10.38
2023-12-22T06:53:25.392Z,10.02
2023-12-22T06:55:53.540Z,10.68
2023-12-22T06:58:22.797Z,8.95
2023-12-22T07:00:50.159Z,10.30
2023-12-22T07:03:18.851Z,9.50
2023-12-22T07:05:46.181Z,8.73
2023-12-22T07:08:14.083Z,9.32
2023-12-22T07:10:41.323Z,9.32
2023-12-22T07:13:08.328Z,8.13
2023-12-22T07:15:35.321Z,9.18
2023-12-22T07:18:02.686Z,9.05
2023-12-22T07:20:29.958Z,8.48
2023-12-22T07:22:58.041Z,7.78
2023-12-22T07:25:25.370Z,9.63
2023-12-22T07:27:53.215Z,8.75
2023-12-22T07:30:21.511Z,9.98
2023-12-22T07:32:53.311Z,8.32
2023-12-22T07:37:47.918Z,8.27
2023-12-22T07:40:18.128Z,9.27
2023-12-22T07:42:45.233Z,9.98
2023-12-22T07:45:12.187Z,10.15
2023-12-22T07:47:39.243Z,11.75
2023-12-22T07:50:09.623Z,11.25
2023-12-22T07:52:41.262Z,10.93
2023-12-22T07:55:12.258Z,9.15
2023-12-22T07:57:39.518Z,10.07
2023-12-22T08:00:07.404Z,9.32
2023-12-22T08:02:34.553Z,9.88
2023-12-22T08:05:01.664Z,10.05
2023-12-22T08:07:28.653Z,11.15
2023-12-22T08:09:55.719Z,9.10
2023-12-22T08:12:23.043Z,10.00
2023-12-22T08:14:49.918Z,10.55
2023-12-22T08:17:16.855Z,9.52
2023-12-22T08:19:46.547Z,9.75
2023-12-22T08:22:15.534Z,10.65
2023-12-22T08:24:42.923Z,10.20
2023-12-22T08:27:10.060Z,10.30
2023-12-22T08:29:37.283Z,8.48
2023-12-22T08:32:04.621Z,9.63
2023-12-22T08:34:32.007Z,9.70
2023-12-22T08:36:59.033Z,8.52
2023-12-22T08:39:26.241Z,7.97
2023-12-22T08:41:53.360Z,8.13
2023-12-22T08:44:20.705Z,8.65
2023-12-22T08:46:47.782Z,7.95
2023-12-22T08:49:14.912Z,7.53
2023-12-22T08:51:42.677Z,6.70
2023-12-22T08:54:09.957Z,8.75
2023-12-22T08:56:36.933Z,7.70
2023-12-22T08:59:03.899Z,7.47
2023-12-22T09:01:31.263Z,6.82
2023-12-22T09:03:58.259Z,7.88
2023-12-22T09:06:26.073Z,7.43
2023-12-22T09:08:54.382Z,8.88
2023-12-22T09:11:22.935Z,7.70
2023-12-22T09:13:50.026Z,9.77
2023-12-22T09:16:22.192Z,8.73
2023-12-22T09:18:49.681Z,9.05
2023-12-22T09:21:18.385Z,7.82
2023-12-22T09:23:47.509Z,8.25
2023-12-22T09:26:15.183Z,8.25
2023-12-22T09:28:42.775Z,9.00
2023-12-22T09:31:10.658Z,8.13
2023-12-22T09:33:37.834Z,8.32
2023-12-22T09:36:05.558Z,9.18
2023-12-22T09:38:32.872Z,10.68
2023-12-22T09:41:00.251Z,11.10
2023-12-22T09:43:27.288Z,9.20
2023-12-22T09:45:54.486Z,8.75
2023-12-22T09:48:28.100Z,9.15
2023-12-22T09:50:55.779Z,10.00
2023-12-22T09:53:22.790Z,9.10
2023-12-22T09:55:50.416Z,8.35
2023-12-22T09:58:17.603Z,8.77
2023-12-22T10:00:44.746Z,8.68
2023-12-22T10:03:13.187Z,7.28
2023-12-22T10:05:41.359Z,9.55
2023-12-22T10:08:11.570Z,7.65
2023-12-22T10:10:39.622Z,8.02
2023-12-22T10:13:10.157Z,8.27
2023-12-22T10:15:40.977Z,7.50
2023-12-22T10:18:08.278Z,7.90
2023-12-22T10:20:36.006Z,7.15
2023-12-22T10:23:03.145Z,8.05
2023-12-22T10:25:36.167Z,8.73
2023-12-22T10:28:03.743Z,6.50
2023-12-22T10:30:31.179Z,8.60
2023-12-22T10:32:58.353Z,8.20
2023-12-22T10:35:25.556Z,6.82
2023-12-22T10:37:54.765Z,7.22
2023-12-22T10:40:21.869Z,7.47
2023-12-22T10:42:49.920Z,7.20
2023-12-22T10:45:18.594Z,7.93
2023-12-22T10:47:45.717Z,6.32
2023-12-22T10:50:16.003Z,8.27
2023-12-22T10:52:43.636Z,8.68
2023-12-22T10:55:11.793Z,9.98
2023-12-22T10:57:39.629Z,9.40
2023-12-22T11:00:08.586Z,9.60
2023-12-22T11:02:36.524Z,8.63
2023-12-22T11:05:09.581Z,9.98
2023-12-22T11:07:37.438Z,10.25
2023-12-22T11:10:07.115Z,8.15
2023-12-22T11:12:38.202Z,7.38
2023-12-22T11:15:08.170Z,8.25
2023-12-22T11:17:36.806Z,7.53
2023-12-22T11:20:04.901Z,7.70
2023-12-22T11:22:33.200Z,7.07
2023-12-22T11:25:00.347Z,8.02
2023-12-22T11:27:27.917Z,7.50
2023-12-22T11:29:54.947Z,7.35
2023-12-22T11:32:22.139Z,7.07
2023-12-22T11:34:49.661Z,8.27
2023-12-22T11:37:16.984Z,7.07
2023-12-22T11:39:44.707Z,7.95
2023-12-22T11:42:32.876Z,7.95
2023-12-22T11:45:00.031Z,7.70
2023-12-22T11:47:27.036Z,7.57
2023-12-22T11:49:54.093Z,6.75
2023-12-22T11:52:26.716Z,8.18
2023-12-22T11:54:55.303Z,7.30
2023-12-22T11:57:28.308Z,6.75
2023-12-22T12:00:07.871Z,6.75
2023-12-22T12:02:36.951Z,7.70
2023-12-22T12:05:04.520Z,8.13
2023-12-22T12:07:41.775Z,7.90
2023-12-22T12:10:09.500Z,7.55
2023-12-22T12:12:37.398Z,6.25
2023-12-22T12:15:11.898Z,7.28
2023-12-22T12:17:39.805Z,6.82
2023-12-22T12:20:12.918Z,6.55
2023-12-22T12:22:40.439Z,7.40
2023-12-22T12:25:21.471Z,6.63
2023-12-22T12:28:03.380Z,8.18
2023-12-22T12:30:30.725Z,6.78
2023-12-22T12:33:03.683Z,6.40
2023-12-22T12:35:32.046Z,8.10
2023-12-22T12:37:59.174Z,7.70
2023-12-22T12:40:26.415Z,7.53
2023-12-22T12:42:53.619Z,8.73
2023-12-22T12:45:24.402Z,8.15
2023-12-22T12:48:02.370Z,8.32
2023-12-22T12:50:30.337Z,8.63
2023-12-22T12:52:57.725Z,8.43
2023-12-22T12:55:25.708Z,8.75
2023-12-22T12:57:56.664Z,7.78
2023-12-22T13:03:08.142Z,8.27
2023-12-22T13:05:37.435Z,8.88
2023-12-22T13:08:10.437Z,8.98
2023-12-22T13:10:38.329Z,8.43
2023-12-22T13:13:05.706Z,8.95
2023-12-22T13:15:32.875Z,8.65
2023-12-22T13:18:00.085Z,8.00
2023-12-22T13:20:28.919Z,8.55
2023-12-22T13:22:56.322Z,9.05
2023-12-22T13:25:25.139Z,8.90
2023-12-22T13:27:53.454Z,7.72
2023-12-22T13:30:35.307Z,10.40
2023-12-22T13:35:29.920Z,7.10
2023-12-22T13:37:57.012Z,8.27
2023-12-22T13:40:24.615Z,8.23
2023-12-22T13:42:56.527Z,8.82
2023-12-22T13:45:23.879Z,8.63
2023-12-22T13:47:51.323Z,9.15
2023-12-22T13:50:19.748Z,10.00
2023-12-22T13:52:47.148Z,8.45
2023-12-22T13:55:15.983Z,8.95
2023-12-22T13:57:43.398Z,9.07
2023-12-22T14:00:25.305Z,8.48
2023-12-22T14:02:52.346Z,7.80
2023-12-22T14:05:19.512Z,9.90
2023-12-22T14:07:46.958Z,10.60
2023-12-22T14:10:14.095Z,9.98
2023-12-22T14:12:41.553Z,8.20
2023-12-22T14:15:09.273Z,9.43
2023-12-22T14:17:36.307Z,9.23
2023-12-22T14:20:05.459Z,10.50
2023-12-22T14:22:33.095Z,10.27
2023-12-22T14:25:00.037Z,8.65
2023-12-22T14:27:27.067Z,9.15
2023-12-22T14:29:53.983Z,10.25
2023-12-22T14:32:21.146Z,8.55
2023-12-22T14:34:48.561Z,11.23
2023-12-22T14:37:17.709Z,10.27
2023-12-22T14:39:46.678Z,11.45
2023-12-22T14:42:14.241Z,11.68
2023-12-22T14:44:41.301Z,11.45
2023-12-22T14:47:11.078Z,12.48
2023-12-22T14:49:40.300Z,11.50
2023-12-22T14:52:07.396Z,11.52
2023-12-22T14:54:34.354Z,11.30
2023-12-22T14:57:01.806Z,12.13
2023-12-22T14:59:29.349Z,14.57
2023-12-22T15:01:56.379Z,16.77
2023-12-22T15:04:23.710Z,14.68
2023-12-22T15:06:56.417Z,16.60
2023-12-22T15:09:28.479Z,15.10
2023-12-22T15:11:56.749Z,14.25
2023-12-22T15:14:24.748Z,14.15
2023-12-22T15:16:53.734Z,16.00
2023-12-22T15:19:21.436Z,15.90
2023-12-22T15:21:48.967Z,12.77
2023-12-22T15:24:16.240Z,14.05
2023-12-22T15:26:43.670Z,15.40
2023-12-22T15:29:10.553Z,15.10
2023-12-22T15:31:38.388Z,13.27
2023-12-22T15:34:07.249Z,15.43
2023-12-22T15:36:35.318Z,14.88
2023-12-22T15:39:02.924Z,15.32
2023-12-22T15:41:32.933Z,15.55
2023-12-22T15:44:00.604Z,15.35
2023-12-22T15:46:27.643Z,15.70
2023-12-22T15:48:54.898Z,15.32
2023-12-22T15:51:22.360Z,15.50
2023-12-22T15:53:49.541Z,16.48
2023-12-22T15:56:18.243Z,17.48
2023-12-22T15:58:46.015Z,16.08
2023-12-22T16:01:14.032Z,17.60
2023-12-22T16:03:41.378Z,17.45
2023-12-22T16:06:09.067Z,17.33
2023-12-22T16:08:38.791Z,16.52
2023-12-22T16:11:06.147Z,15.52
2023-12-22T16:13:34.186Z,16.42
2023-12-22T16:16:01.816Z,16.10
2023-12-22T16:18:29.840Z,18.65
2023-12-22T16:20:57.432Z,18.10
2023-12-22T16:23:24.585Z,17.48
2023-12-22T16:25:52.389Z,17.00
2023-12-22T16:28:19.737Z,18.15
2023-12-22T16:30:47.670Z,16.77
2023-12-22T16:33:15.015Z,16.67
2023-12-22T16:35:42.996Z,16.15
2023-12-22T16:38:10.027Z,15.23
2023-12-22T16:40:37.193Z,14.60
2023-12-22T16:43:05.255Z,16.30
2023-12-22T16:45:32.232Z,13.93
2023-12-22T16:48:01.052Z,14.82
2023-12-22T16:50:28.272Z,15.13
2023-12-22T16:52:56.541Z,13.65
2023-12-22T16:55:23.745Z,15.45
2023-12-22T16:57:51.372Z,12.88
2023-12-22T17:00:21.195Z,13.98
2023-12-22T17:02:49.305Z,14.18
2023-12-22T17:05:17.707Z,13.18
2023-12-22T17:07:46.707Z,13.02
2023-12-22T17:10:14.667Z,11.68
2023-12-22T17:12:42.227Z,12.68
2023-12-22T17:15:10.982Z,12.30
2023-12-22T17:17:38.618Z,13.70
2023-12-22T17:20:07.769Z,14.10
2023-12-22T17:22:35.074Z,12.52
2023-12-22T17:25:02.322Z,12.15
2023-12-22T17:27:29.483Z,12.77
2023-12-22T17:29:56.647Z,13.40
2023-12-22T17:32:23.617Z,11.43
2023-12-22T17:34:50.725Z,13.93
2023-12-22T17:37:17.988Z,13.40
2023-12-22T17:39:45.293Z,12.45
2023-12-22T17:42:12.453Z,11.85
2023-12-22T17:44:39.681Z,12.68
2023-12-22T17:47:06.758Z,11.50
2023-12-22T17:49:34.088Z,11.93
2023-12-22T17:52:01.438Z,12.57
2023-12-22T17:54:28.423Z,11.13
2023-12-22T17:56:55.712Z,11.60
2023-12-22T17:59:22.697Z,11.35
2023-12-22T18:01:51.097Z,13.05
2023-12-22T18:04:18.515Z,11.00
2023-12-22T18:06:45.714Z,11.38
2023-12-22T18:09:12.856Z,10.93
2023-12-22T18:11:43.605Z,10.85
2023-12-22T18:14:11.130Z,12.43
2023-12-22T18:16:40.168Z,11.65
2023-12-22T18:19:07.337Z,11.15
2023-12-22T18:21:34.727Z,11.75
2023-12-22T18:24:01.739Z,11.02
2023-12-22T18:26:28.904Z,11.93
2023-12-22T18:28:56.361Z,10.85
2023-12-22T18:31:24.096Z,11.93
2023-12-22T18:33:51.446Z,11.30
2023-12-22T18:36:18.446Z,11.60
2023-12-22T18:38:45.425Z,10.70
2023-12-22T18:41:12.762Z,11.07
2023-12-22T18:43:40.164Z,12.02
2023-12-22T18:46:07.679Z,11.40
2023-12-22T18:48:35.628Z,12.20
2023-12-22T18:51:02.922Z,12.50
2023-12-22T18:53:30.169Z,10.98
2023-12-22T18:55:58.287Z,11.63
2023-12-22T18:58:30.015Z,12.30
2023-12-22T19:00:57.379Z,11.40
2023-12-22T19:03:24.782Z,11.02
2023-12-22T19:05:51.941Z,11.68
2023-12-22T19:08:19.072Z,12.90
2023-12-22T19:10:46.822Z,12.35
2023-12-22T19:13:15.062Z,12.63
2023-12-22T19:15:42.709Z,11.65
2023-12-22T19:18:09.970Z,11.35
2023-12-22T19:20:37.246Z,11.40
2023-12-22T19:23:04.592Z,9.77
2023-12-22T19:25:32.123Z,12.27
2023-12-22T19:28:01.757Z,10.90
2023-12-22T19:30:29.789Z,11.95
2023-12-22T19:32:56.799Z,10.65
2023-12-22T19:35:23.784Z,11.32
2023-12-22T19:37:51.132Z,10.05
2023-12-22T19:40:18.507Z,10.00
2023-12-22T19:42:45.779Z,10.63
2023-12-22T19:45:13.200Z,9.57
2023-12-22T19:47:40.326Z,9.93
2023-12-22T19:50:08.551Z,8.65
2023-12-22T19:52:36.250Z,8.38
2023-12-22T19:55:03.648Z,9.07
2023-12-22T19:57:31.022Z,8.82
2023-12-22T19:59:58.082Z,9.90
2023-12-22T20:02:27.023Z,10.98
2023-12-22T20:04:54.726Z,8.20
2023-12-22T20:07:21.767Z,10.18
2023-12-22T20:09:48.691Z,9.23
2023-12-22T20:12:15.573Z,9.32
2023-12-22T20:14:42.472Z,8.98
2023-12-22T20:17:09.565Z,9.98
2023-12-22T20:19:36.899Z,7.28
2023-12-22T20:22:05.520Z,8.93
2023-12-22T20:24:33.050Z,8.77
2023-12-22T20:27:00.329Z,8.43
2023-12-22T20:29:27.193Z,10.00
2023-12-22T20:31:54.286Z,8.63
2023-12-22T20:34:21.476Z,8.65
2023-12-22T20:36:48.622Z,8.07
2023-12-22T20:39:15.528Z,7.97
2023-12-22T20:41:42.481Z,8.25
2023-12-22T20:44:09.597Z,7.50
2023-12-22T20:46:36.562Z,7.53
2023-12-22T20:49:04.648Z,7.32
2023-12-22T20:51:33.591Z,6.45
2023-12-22T20:54:00.659Z,8.25
2023-12-22T20:56:28.602Z,8.25
2023-12-22T20:58:57.028Z,8.23
2023-12-22T21:01:26.341Z,6.68
2023-12-22T21:03:53.426Z,6.45
2023-12-22T21:06:20.970Z,6.60
2023-12-22T21:08:48.191Z,7.30
2023-12-22T21:11:22.317Z,6.72
2023-12-22T21:13:49.603Z,6.93
2023-12-22T21:16:16.538Z,6.40
2023-12-22T21:18:44.190Z,7.05
2023-12-22T21:21:11.616Z,6.40
2023-12-22T21:23:39.046Z,5.72
2023-12-22T21:26:06.213Z,6.57
2023-12-22T21:28:33.204Z,5.88
2023-12-22T21:31:00.282Z,6.60
2023-12-22T21:33:27.169Z,6.07
2023-12-22T21:35:54.056Z,6.55
2023-12-22T21:38:21.312Z,6.38
2023-12-22T21:40:48.303Z,6.97
2023-12-22T21:43:15.260Z,7.28
2023-12-22T21:45:43.225Z,6.22
2023-12-22T21:48:10.403Z,6.55
2023-12-22T21:50:37.475Z,6.47
2023-12-22T21:53:04.512Z,6.90
2023-12-22T21:55:31.735Z,6.80
2023-12-22T21:57:58.751Z,7.13
2023-12-22T22:00:25.927Z,7.25
2023-12-22T22:02:53.192Z,7.60
2023-12-22T22:05:20.137Z,8.23
2023-12-22T22:07:47.259Z,7.55
2023-12-22T22:10:14.816Z,8.55
2023-12-22T22:12:46.049Z,7.60
2023-12-22T22:15:16.128Z,7.95
2023-12-22T22:17:43.602Z,8.35
2023-12-22T22:20:10.771Z,8.38
2023-12-22T22:22:37.867Z,8.13
2023-12-22T22:25:05.349Z,7.95
2023-12-22T22:27:32.806Z,8.00
2023-12-22T22:30:00.059Z,9.13
2023-12-22T22:32:27.042Z,9.43
2023-12-22T22:34:54.101Z,9.65
2023-12-22T22:37:20.973Z,10.55
2023-12-22T22:39:47.882Z,10.77
2023-12-22T22:42:14.975Z,11.02
2023-12-22T22:44:45.000Z,10.40
2023-12-22T22:47:12.798Z,11.63
2023-12-22T22:49:40.030Z,12.90
2023-12-22T22:52:07.178Z,10.15
2023-12-22T22:54:34.286Z,9.32
2023-12-22T22:57:01.262Z,9.68
2023-12-22T22:59:28.138Z,11.43
2023-12-22T23:01:55.033Z,10.23
2023-12-22T23:04:23.549Z,8.20
2023-12-22T23:06:50.389Z,8.50
2023-12-22T23:09:17.297Z,9.23
2023-12-22T23:11:44.251Z,10.80
2023-12-22T23:14:11.132Z,10.82
2023-12-22T23:16:38.053Z,9.82
2023-12-22T23:19:05.479Z,11.98
2023-12-22T23:21:32.461Z,11.95
2023-12-22T23:23:59.309Z,11.18
2023-12-22T23:26:26.238Z,11.13
2023-12-22T23:28:53.286Z,9.77
2023-12-22T23:31:20.116Z,9.95
2023-12-22T23:33:47.184Z,8.95
2023-12-22T23:36:21.769Z,8.55
2023-12-22T23:38:52.489Z,11.43
2023-12-22T23:41:19.486Z,9.60
2023-12-22T23:43:46.348Z,9.07
2023-12-22T23:46:13.692Z,7.90
2023-12-22T23:48:43.992Z,9.95
2023-12-22T23:51:14.837Z,9.93
2023-12-22T23:53:41.738Z,9.43
2023-12-22T23:56:08.781Z,10.25
2023-12-22T23:58:35.983Z,8.38
